AFL3500 ULLI-UUEE
Flight info
| Callsign | AFL3500 |
|---|---|
| Flight time | 0h 59m |
| Altitude | 35000 |
| Route | SUGIN1A SUGIN T873 NIRGI T73 NAMIN NAMIN3E |
| Aircraft | A321/M-SDE3FGHIRWY/LB1 |
Departure
| Time | 2026-05-04 19:14 |
|---|---|
| Airport | Pulkovo Airport (ULLI) |
Arrival
| Time | 2026-05-04 20:13 |
|---|---|
| Airport | Sheremetyevo International Airport (UUEE) |
| Time | Latitude | Longitude | Altitude | Speed | Heading |
|---|---|---|---|---|---|
| 2026-05-04 18:51 | 59.79893 | 30.26693 | 81 ft | 0 kts | 111° |
| 2026-05-04 19:03 | 59.79893 | 30.26692 | 79 ft | 1 kts | 111° |
| 2026-05-04 19:03 | 59.79899 | 30.26657 | 80 ft | 3 kts | 99° |
| 2026-05-04 19:03 | 59.79900 | 30.26619 | 83 ft | 3 kts | 75° |
| 2026-05-04 19:03 | 59.79893 | 30.26587 | 82 ft | 3 kts | 33° |
| 2026-05-04 19:04 | 59.79885 | 30.26579 | 84 ft | 0 kts | 17° |
| 2026-05-04 19:06 | 59.79886 | 30.26579 | 82 ft | 1 kts | 17° |
| 2026-05-04 19:06 | 59.79895 | 30.26585 | 83 ft | 4 kts | 17° |
| 2026-05-04 19:07 | 59.79925 | 30.26603 | 94 ft | 10 kts | 17° |
| 2026-05-04 19:07 | 59.80044 | 30.26673 | 89 ft | 15 kts | 16° |
| 2026-05-04 19:07 | 59.80152 | 30.26736 | 87 ft | 17 kts | 17° |
| 2026-05-04 19:07 | 59.80272 | 30.26807 | 84 ft | 19 kts | 17° |
| 2026-05-04 19:08 | 59.80370 | 30.26869 | 84 ft | 11 kts | 31° |
| 2026-05-04 19:08 | 59.80373 | 30.27013 | 86 ft | 11 kts | 106° |
| 2026-05-04 19:08 | 59.80349 | 30.27166 | 84 ft | 12 kts | 107° |
| 2026-05-04 19:08 | 59.80325 | 30.27329 | 88 ft | 13 kts | 106° |
| 2026-05-04 19:09 | 59.80299 | 30.27504 | 85 ft | 14 kts | 107° |
| 2026-05-04 19:09 | 59.80271 | 30.27693 | 87 ft | 15 kts | 107° |
| 2026-05-04 19:09 | 59.80240 | 30.27896 | 85 ft | 16 kts | 107° |
| 2026-05-04 19:09 | 59.80208 | 30.28116 | 84 ft | 17 kts | 106° |
| 2026-05-04 19:10 | 59.80173 | 30.28352 | 84 ft | 17 kts | 107° |
| 2026-05-04 19:10 | 59.80154 | 30.28476 | 76 ft | 14 kts | 105° |
| 2026-05-04 19:10 | 59.80192 | 30.28645 | 79 ft | 13 kts | 50° |
| 2026-05-04 19:10 | 59.80255 | 30.28790 | 76 ft | 15 kts | 49° |
| 2026-05-04 19:11 | 59.80332 | 30.28816 | 78 ft | 14 kts | 301° |
| 2026-05-04 19:11 | 59.80344 | 30.28746 | 78 ft | 0 kts | 287° |
| 2026-05-04 19:13 | 59.80344 | 30.28745 | 78 ft | 1 kts | 287° |
| 2026-05-04 19:13 | 59.80408 | 30.28334 | 75 ft | 67 kts | 286° |
| 2026-05-04 19:14 | 59.80600 | 30.27047 | 83 ft | 125 kts | 287° |
| 2026-05-04 19:14 | 59.80890 | 30.25103 | 130 ft | 164 kts | 287° |
| 2026-05-04 19:14 | 59.81224 | 30.22956 | 732 ft | 161 kts | 287° |
| 2026-05-04 19:14 | 59.81545 | 30.20819 | 1385 ft | 160 kts | 285° |
| 2026-05-04 19:15 | 59.81850 | 30.18732 | 1971 ft | 155 kts | 285° |
| 2026-05-04 19:15 | 59.82147 | 30.16697 | 2517 ft | 152 kts | 285° |
| 2026-05-04 19:15 | 59.82440 | 30.14695 | 3032 ft | 150 kts | 284° |
| 2026-05-04 19:15 | 59.82733 | 30.12692 | 3393 ft | 156 kts | 283° |
| 2026-05-04 19:16 | 59.83052 | 30.10497 | 3533 ft | 173 kts | 283° |
| 2026-05-04 19:16 | 59.83397 | 30.08104 | 3665 ft | 187 kts | 283° |
| 2026-05-04 19:16 | 59.83775 | 30.05503 | 3817 ft | 204 kts | 283° |
| 2026-05-04 19:16 | 59.84177 | 30.02749 | 4314 ft | 209 kts | 282° |
| 2026-05-04 19:17 | 59.84474 | 29.99932 | 4847 ft | 208 kts | 265° |
| 2026-05-04 19:17 | 59.83891 | 29.97340 | 5348 ft | 215 kts | 227° |
| 2026-05-04 19:17 | 59.82564 | 29.95856 | 5906 ft | 224 kts | 206° |
| 2026-05-04 19:17 | 59.81058 | 29.94963 | 6466 ft | 228 kts | 201° |
| 2026-05-04 19:18 | 59.79527 | 29.94233 | 6988 ft | 230 kts | 200° |
| 2026-05-04 19:18 | 59.77964 | 29.93495 | 7525 ft | 231 kts | 201° |
| 2026-05-04 19:18 | 59.76400 | 29.92717 | 8077 ft | 232 kts | 201° |
| 2026-05-04 19:18 | 59.74774 | 29.92314 | 8569 ft | 247 kts | 179° |
| 2026-05-04 19:19 | 59.73163 | 29.93866 | 9048 ft | 274 kts | 144° |
| 2026-05-04 19:19 | 59.72021 | 29.97149 | 9227 ft | 306 kts | 120° |
| 2026-05-04 19:19 | 59.71278 | 30.01214 | 9676 ft | 320 kts | 110° |
| 2026-05-04 19:19 | 59.70713 | 30.05623 | 9872 ft | 341 kts | 107° |
| 2026-05-04 19:20 | 59.70177 | 30.10360 | 10003 ft | 362 kts | 106° |
| 2026-05-04 19:20 | 59.69672 | 30.15391 | 10086 ft | 384 kts | 99° |
| 2026-05-04 19:20 | 59.69587 | 30.20733 | 10368 ft | 399 kts | 91° |
| 2026-05-04 19:20 | 59.69571 | 30.26258 | 10888 ft | 404 kts | 94° |
| 2026-05-04 19:21 | 59.69481 | 30.31910 | 11455 ft | 407 kts | 96° |
| 2026-05-04 19:21 | 59.69053 | 30.37364 | 12009 ft | 406 kts | 108° |
| 2026-05-04 19:21 | 59.68403 | 30.42835 | 12578 ft | 410 kts | 107° |
| 2026-05-04 19:21 | 59.67778 | 30.48374 | 13155 ft | 414 kts | 106° |
| 2026-05-04 19:22 | 59.67173 | 30.53974 | 13682 ft | 418 kts | 106° |
| 2026-05-04 19:22 | 59.66576 | 30.59623 | 14189 ft | 421 kts | 106° |
| 2026-05-04 19:22 | 59.65975 | 30.65321 | 14697 ft | 424 kts | 106° |
| 2026-05-04 19:22 | 59.65377 | 30.71053 | 15207 ft | 427 kts | 105° |
| 2026-05-04 19:23 | 59.64841 | 30.76847 | 15716 ft | 431 kts | 104° |
| 2026-05-04 19:23 | 59.64362 | 30.82719 | 16174 ft | 434 kts | 103° |
| 2026-05-04 19:23 | 59.63909 | 30.88638 | 16666 ft | 437 kts | 102° |
| 2026-05-04 19:23 | 59.63454 | 30.94582 | 17141 ft | 439 kts | 103° |
| 2026-05-04 19:24 | 59.62986 | 31.00568 | 17627 ft | 442 kts | 103° |
| 2026-05-04 19:24 | 59.62500 | 31.06576 | 18072 ft | 444 kts | 103° |
| 2026-05-04 19:24 | 59.61993 | 31.12609 | 18481 ft | 447 kts | 104° |
| 2026-05-04 19:24 | 59.61467 | 31.18674 | 18899 ft | 449 kts | 104° |
| 2026-05-04 19:25 | 59.60932 | 31.24758 | 19315 ft | 451 kts | 104° |
| 2026-05-04 19:25 | 59.60396 | 31.30867 | 19718 ft | 453 kts | 104° |
| 2026-05-04 19:25 | 59.59866 | 31.36929 | 20117 ft | 455 kts | 104° |
| 2026-05-04 19:25 | 59.59328 | 31.43097 | 20520 ft | 457 kts | 104° |
| 2026-05-04 19:26 | 59.58783 | 31.49297 | 20929 ft | 459 kts | 104° |
| 2026-05-04 19:26 | 59.58233 | 31.55527 | 21303 ft | 461 kts | 105° |
| 2026-05-04 19:26 | 59.57681 | 31.61769 | 21716 ft | 463 kts | 105° |
| 2026-05-04 19:26 | 59.57122 | 31.68048 | 22108 ft | 466 kts | 105° |
| 2026-05-04 19:27 | 59.56555 | 31.74372 | 22481 ft | 469 kts | 105° |
| 2026-05-04 19:27 | 59.55982 | 31.80707 | 22865 ft | 471 kts | 105° |
| 2026-05-04 19:27 | 59.55421 | 31.86879 | 23229 ft | 473 kts | 105° |
| 2026-05-04 19:27 | 59.54843 | 31.93182 | 23533 ft | 475 kts | 105° |
| 2026-05-04 19:28 | 59.54212 | 31.99670 | 23840 ft | 475 kts | 109° |
| 2026-05-04 19:28 | 59.53238 | 32.05767 | 24139 ft | 470 kts | 118° |
| 2026-05-04 19:28 | 59.51811 | 32.11577 | 24437 ft | 464 kts | 127° |
| 2026-05-04 19:28 | 59.50035 | 32.16750 | 24705 ft | 458 kts | 135° |
| 2026-05-04 19:29 | 59.47915 | 32.21384 | 25011 ft | 453 kts | 142° |
| 2026-05-04 19:29 | 59.45671 | 32.25761 | 25308 ft | 455 kts | 142° |
| 2026-05-04 19:29 | 59.43415 | 32.30145 | 25599 ft | 457 kts | 142° |
| 2026-05-04 19:29 | 59.41147 | 32.34546 | 25881 ft | 459 kts | 142° |
| 2026-05-04 19:30 | 59.38866 | 32.38972 | 26161 ft | 461 kts | 142° |
| 2026-05-04 19:30 | 59.36585 | 32.43398 | 26451 ft | 463 kts | 142° |
| 2026-05-04 19:30 | 59.34289 | 32.47853 | 26709 ft | 465 kts | 142° |
| 2026-05-04 19:30 | 59.31988 | 32.52311 | 26992 ft | 466 kts | 142° |
| 2026-05-04 19:31 | 59.29673 | 32.56780 | 27275 ft | 468 kts | 142° |
| 2026-05-04 19:31 | 59.27348 | 32.61253 | 27522 ft | 470 kts | 142° |
| 2026-05-04 19:31 | 59.25018 | 32.65730 | 27903 ft | 469 kts | 142° |
| 2026-05-04 19:31 | 59.22695 | 32.70192 | 28273 ft | 468 kts | 142° |
| 2026-05-04 19:32 | 59.20377 | 32.74630 | 28663 ft | 467 kts | 142° |
| 2026-05-04 19:32 | 59.18058 | 32.79054 | 29056 ft | 465 kts | 142° |
| 2026-05-04 19:32 | 59.15772 | 32.83408 | 29429 ft | 464 kts | 142° |
| 2026-05-04 19:32 | 59.13461 | 32.87803 | 29800 ft | 464 kts | 142° |
| 2026-05-04 19:33 | 59.11148 | 32.92187 | 30091 ft | 463 kts | 142° |
| 2026-05-04 19:33 | 59.08842 | 32.96551 | 30389 ft | 463 kts | 142° |
| 2026-05-04 19:33 | 59.06531 | 33.00922 | 30678 ft | 463 kts | 143° |
| 2026-05-04 19:33 | 59.04222 | 33.05273 | 30973 ft | 463 kts | 143° |
| 2026-05-04 19:34 | 59.01911 | 33.09622 | 31277 ft | 462 kts | 143° |
| 2026-05-04 19:34 | 58.99601 | 33.13969 | 31567 ft | 462 kts | 143° |
| 2026-05-04 19:34 | 58.97288 | 33.18305 | 31856 ft | 462 kts | 143° |
| 2026-05-04 19:34 | 58.94974 | 33.22631 | 32140 ft | 462 kts | 143° |
| 2026-05-04 19:35 | 58.92663 | 33.26948 | 32429 ft | 462 kts | 143° |
| 2026-05-04 19:35 | 58.90348 | 33.31262 | 32722 ft | 462 kts | 144° |
| 2026-05-04 19:35 | 58.88029 | 33.35568 | 33002 ft | 462 kts | 144° |
| 2026-05-04 19:35 | 58.85710 | 33.39866 | 33274 ft | 462 kts | 144° |
| 2026-05-04 19:36 | 58.83421 | 33.44110 | 33515 ft | 462 kts | 144° |
| 2026-05-04 19:36 | 58.81073 | 33.48463 | 33732 ft | 463 kts | 144° |
| 2026-05-04 19:36 | 58.78752 | 33.52750 | 33939 ft | 463 kts | 144° |
| 2026-05-04 19:36 | 58.76451 | 33.56991 | 34139 ft | 463 kts | 144° |
| 2026-05-04 19:37 | 58.74117 | 33.61283 | 34334 ft | 463 kts | 143° |
| 2026-05-04 19:37 | 58.71787 | 33.65556 | 34549 ft | 463 kts | 143° |
| 2026-05-04 19:37 | 58.69451 | 33.69833 | 34685 ft | 464 kts | 143° |
| 2026-05-04 19:38 | 58.64773 | 33.78376 | 34706 ft | 463 kts | 143° |
| 2026-05-04 19:38 | 58.60095 | 33.86872 | 34671 ft | 463 kts | 143° |
| 2026-05-04 19:39 | 58.55418 | 33.95346 | 34713 ft | 463 kts | 143° |
| 2026-05-04 19:39 | 58.50734 | 34.03798 | 34707 ft | 463 kts | 143° |
| 2026-05-04 19:40 | 58.46049 | 34.12245 | 34716 ft | 463 kts | 143° |
| 2026-05-04 19:40 | 58.41358 | 34.20655 | 34715 ft | 462 kts | 143° |
| 2026-05-04 19:41 | 58.36653 | 34.29027 | 34683 ft | 462 kts | 143° |
| 2026-05-04 19:41 | 58.31943 | 34.37383 | 34691 ft | 463 kts | 143° |
| 2026-05-04 19:42 | 58.27264 | 34.45675 | 34707 ft | 463 kts | 143° |
| 2026-05-04 19:42 | 58.22541 | 34.54020 | 34713 ft | 463 kts | 143° |
| 2026-05-04 19:43 | 58.17775 | 34.62226 | 34707 ft | 461 kts | 145° |
| 2026-05-04 19:43 | 58.12854 | 34.69999 | 34691 ft | 460 kts | 147° |
| 2026-05-04 19:44 | 58.07890 | 34.77641 | 34697 ft | 461 kts | 146° |
| 2026-05-04 19:44 | 58.02942 | 34.85361 | 34710 ft | 462 kts | 146° |
| 2026-05-04 19:45 | 57.98010 | 34.93114 | 34719 ft | 462 kts | 146° |
| 2026-05-04 19:45 | 57.93065 | 35.00872 | 34723 ft | 462 kts | 146° |
| 2026-05-04 19:46 | 57.88151 | 35.08531 | 34717 ft | 462 kts | 145° |
| 2026-05-04 19:46 | 57.83194 | 35.16215 | 34730 ft | 462 kts | 146° |
| 2026-05-04 19:47 | 57.78236 | 35.23894 | 34743 ft | 462 kts | 145° |
| 2026-05-04 19:47 | 57.73277 | 35.31534 | 34745 ft | 462 kts | 146° |
| 2026-05-04 19:48 | 57.68310 | 35.39146 | 34749 ft | 461 kts | 146° |
| 2026-05-04 19:48 | 57.63343 | 35.46729 | 34732 ft | 461 kts | 145° |
| 2026-05-04 19:49 | 57.58381 | 35.54305 | 34752 ft | 461 kts | 145° |
| 2026-05-04 19:49 | 57.53417 | 35.61869 | 34755 ft | 460 kts | 145° |
| 2026-05-04 19:50 | 57.48452 | 35.69409 | 34454 ft | 462 kts | 145° |
| 2026-05-04 19:50 | 57.45932 | 35.73225 | 33425 ft | 471 kts | 145° |
| 2026-05-04 19:50 | 57.43378 | 35.77081 | 32551 ft | 473 kts | 145° |
| 2026-05-04 19:50 | 57.40819 | 35.80942 | 31678 ft | 476 kts | 144° |
| 2026-05-04 19:51 | 57.38238 | 35.84826 | 30777 ft | 479 kts | 144° |
| 2026-05-04 19:51 | 57.35675 | 35.88675 | 29920 ft | 482 kts | 145° |
| 2026-05-04 19:51 | 57.33056 | 35.92600 | 28796 ft | 487 kts | 144° |
| 2026-05-04 19:51 | 57.30419 | 35.96549 | 27864 ft | 488 kts | 144° |
| 2026-05-04 19:52 | 57.27805 | 36.00465 | 27327 ft | 480 kts | 144° |
| 2026-05-04 19:52 | 57.25217 | 36.04339 | 26643 ft | 477 kts | 144° |
| 2026-05-04 19:52 | 57.22644 | 36.08177 | 26009 ft | 473 kts | 144° |
| 2026-05-04 19:52 | 57.20087 | 36.11978 | 25363 ft | 470 kts | 144° |
| 2026-05-04 19:53 | 57.17550 | 36.15740 | 24737 ft | 466 kts | 144° |
| 2026-05-04 19:53 | 57.15035 | 36.19465 | 24111 ft | 463 kts | 144° |
| 2026-05-04 19:53 | 57.12531 | 36.23167 | 23506 ft | 460 kts | 144° |
| 2026-05-04 19:53 | 57.10042 | 36.26848 | 22827 ft | 457 kts | 144° |
| 2026-05-04 19:54 | 57.07579 | 36.30488 | 22239 ft | 451 kts | 144° |
| 2026-05-04 19:54 | 57.05147 | 36.34074 | 21693 ft | 445 kts | 144° |
| 2026-05-04 19:54 | 57.02743 | 36.37608 | 21136 ft | 439 kts | 145° |
| 2026-05-04 19:54 | 57.00363 | 36.41069 | 20647 ft | 433 kts | 145° |
| 2026-05-04 19:55 | 56.98010 | 36.44461 | 20148 ft | 426 kts | 145° |
| 2026-05-04 19:55 | 56.95693 | 36.47785 | 19667 ft | 420 kts | 145° |
| 2026-05-04 19:55 | 56.93407 | 36.51060 | 19217 ft | 414 kts | 145° |
| 2026-05-04 19:55 | 56.91185 | 36.54242 | 18787 ft | 408 kts | 145° |
| 2026-05-04 19:56 | 56.88966 | 36.57417 | 18346 ft | 402 kts | 145° |
| 2026-05-04 19:56 | 56.86779 | 36.60563 | 17883 ft | 397 kts | 144° |
| 2026-05-04 19:56 | 56.84626 | 36.63684 | 17451 ft | 391 kts | 144° |
| 2026-05-04 19:56 | 56.82511 | 36.66753 | 17025 ft | 386 kts | 144° |
| 2026-05-04 19:57 | 56.80422 | 36.69779 | 16601 ft | 381 kts | 144° |
| 2026-05-04 19:57 | 56.78362 | 36.72752 | 16268 ft | 373 kts | 144° |
| 2026-05-04 19:57 | 56.76354 | 36.75643 | 16134 ft | 361 kts | 145° |
| 2026-05-04 19:57 | 56.74399 | 36.78448 | 15844 ft | 354 kts | 145° |
| 2026-05-04 19:58 | 56.72472 | 36.81212 | 15599 ft | 350 kts | 144° |
| 2026-05-04 19:58 | 56.70674 | 36.84212 | 15346 ft | 351 kts | 138° |
| 2026-05-04 19:58 | 56.68949 | 36.87331 | 15116 ft | 349 kts | 138° |
| 2026-05-04 19:58 | 56.67247 | 36.90406 | 14787 ft | 348 kts | 138° |
| 2026-05-04 19:59 | 56.65512 | 36.93541 | 14401 ft | 346 kts | 138° |
| 2026-05-04 19:59 | 56.63830 | 36.96579 | 14024 ft | 344 kts | 138° |
| 2026-05-04 19:59 | 56.62133 | 36.99636 | 13647 ft | 342 kts | 138° |
| 2026-05-04 19:59 | 56.60446 | 37.02673 | 13239 ft | 340 kts | 138° |
| 2026-05-04 20:00 | 56.58768 | 37.05689 | 12864 ft | 338 kts | 138° |
| 2026-05-04 20:00 | 56.57102 | 37.08677 | 12494 ft | 336 kts | 138° |
| 2026-05-04 20:00 | 56.55446 | 37.11648 | 12119 ft | 333 kts | 138° |
| 2026-05-04 20:00 | 56.54364 | 37.13590 | 11988 ft | 327 kts | 138° |
| 2026-05-04 20:01 | 56.52741 | 37.16372 | 11770 ft | 317 kts | 146° |
| 2026-05-04 20:01 | 56.50966 | 37.18682 | 11454 ft | 311 kts | 148° |
| 2026-05-04 20:01 | 56.49210 | 37.20958 | 11070 ft | 310 kts | 147° |
| 2026-05-04 20:01 | 56.47455 | 37.23241 | 10644 ft | 310 kts | 147° |
| 2026-05-04 20:02 | 56.45700 | 37.25522 | 10225 ft | 310 kts | 147° |
| 2026-05-04 20:02 | 56.43967 | 37.27763 | 10037 ft | 302 kts | 148° |
| 2026-05-04 20:02 | 56.42272 | 37.29953 | 9852 ft | 297 kts | 148° |
| 2026-05-04 20:02 | 56.40592 | 37.32118 | 9659 ft | 297 kts | 148° |
| 2026-05-04 20:03 | 56.38908 | 37.34282 | 9213 ft | 297 kts | 148° |
| 2026-05-04 20:03 | 56.37243 | 37.36418 | 8777 ft | 297 kts | 148° |
| 2026-05-04 20:03 | 56.35569 | 37.38564 | 8378 ft | 296 kts | 148° |
| 2026-05-04 20:03 | 56.33895 | 37.40703 | 8058 ft | 292 kts | 148° |
| 2026-05-04 20:04 | 56.32238 | 37.42820 | 7673 ft | 291 kts | 148° |
| 2026-05-04 20:04 | 56.30589 | 37.44927 | 7299 ft | 290 kts | 148° |
| 2026-05-04 20:04 | 56.28949 | 37.47023 | 6941 ft | 288 kts | 148° |
| 2026-05-04 20:04 | 56.27320 | 37.49104 | 6569 ft | 286 kts | 148° |
| 2026-05-04 20:05 | 56.25705 | 37.51154 | 6013 ft | 283 kts | 149° |
| 2026-05-04 20:05 | 56.24094 | 37.53196 | 5435 ft | 282 kts | 148° |
| 2026-05-04 20:05 | 56.22535 | 37.55181 | 5281 ft | 267 kts | 148° |
| 2026-05-04 20:05 | 56.21048 | 37.57079 | 5158 ft | 256 kts | 149° |
| 2026-05-04 20:06 | 56.19665 | 37.58914 | 5000 ft | 248 kts | 142° |
| 2026-05-04 20:06 | 56.18458 | 37.61109 | 4869 ft | 247 kts | 138° |
| 2026-05-04 20:06 | 56.17246 | 37.63261 | 4740 ft | 239 kts | 146° |
| 2026-05-04 20:06 | 56.15833 | 37.64596 | 4597 ft | 225 kts | 165° |
| 2026-05-04 20:07 | 56.14365 | 37.65551 | 4480 ft | 224 kts | 165° |
| 2026-05-04 20:07 | 56.12923 | 37.66491 | 4366 ft | 214 kts | 165° |
| 2026-05-04 20:07 | 56.11578 | 37.67370 | 4249 ft | 204 kts | 166° |
| 2026-05-04 20:07 | 56.10231 | 37.68232 | 4135 ft | 210 kts | 166° |
| 2026-05-04 20:08 | 56.08850 | 37.69116 | 4007 ft | 211 kts | 166° |
| 2026-05-04 20:08 | 56.07470 | 37.70001 | 3882 ft | 211 kts | 165° |
| 2026-05-04 20:08 | 56.06088 | 37.70889 | 3759 ft | 211 kts | 165° |
| 2026-05-04 20:08 | 56.04699 | 37.71739 | 3600 ft | 209 kts | 172° |
| 2026-05-04 20:09 | 56.03330 | 37.71722 | 3491 ft | 188 kts | 198° |
| 2026-05-04 20:09 | 56.02216 | 37.70704 | 3442 ft | 176 kts | 222° |
| 2026-05-04 20:09 | 56.01513 | 37.69072 | 3301 ft | 161 kts | 244° |
| 2026-05-04 20:09 | 56.01118 | 37.67247 | 3149 ft | 155 kts | 246° |
| 2026-05-04 20:10 | 56.00756 | 37.65453 | 2980 ft | 152 kts | 250° |
| 2026-05-04 20:10 | 56.00449 | 37.63660 | 2795 ft | 150 kts | 251° |
| 2026-05-04 20:10 | 56.00170 | 37.61886 | 2605 ft | 147 kts | 251° |
| 2026-05-04 20:10 | 55.99902 | 37.60117 | 2412 ft | 147 kts | 252° |
| 2026-05-04 20:11 | 55.99642 | 37.58379 | 2227 ft | 146 kts | 251° |
| 2026-05-04 20:11 | 55.99383 | 37.56633 | 2037 ft | 145 kts | 251° |
| 2026-05-04 20:11 | 55.99125 | 37.54892 | 1847 ft | 145 kts | 251° |
| 2026-05-04 20:11 | 55.98869 | 37.53160 | 1668 ft | 144 kts | 251° |
| 2026-05-04 20:12 | 55.98610 | 37.51412 | 1453 ft | 147 kts | 251° |
| 2026-05-04 20:12 | 55.98351 | 37.49660 | 1267 ft | 147 kts | 253° |
| 2026-05-04 20:12 | 55.98088 | 37.47890 | 1079 ft | 147 kts | 252° |
| 2026-05-04 20:12 | 55.97824 | 37.46105 | 875 ft | 149 kts | 252° |
| 2026-05-04 20:13 | 55.97567 | 37.44324 | 674 ft | 148 kts | 253° |
| 2026-05-04 20:13 | 55.97320 | 37.42674 | 643 ft | 115 kts | 256° |
| 2026-05-04 20:13 | 55.97171 | 37.41687 | 642 ft | 45 kts | 255° |
| 2026-05-04 20:13 | 55.97146 | 37.41377 | 643 ft | 11 kts | 302° |
| 2026-05-04 20:14 | 55.97200 | 37.41332 | 644 ft | 8 kts | 342° |
| 2026-05-04 20:14 | 55.97250 | 37.41306 | 646 ft | 7 kts | 345° |
| 2026-05-04 20:14 | 55.97301 | 37.41281 | 640 ft | 8 kts | 345° |
| 2026-05-04 20:14 | 55.97355 | 37.41255 | 640 ft | 9 kts | 345° |
| 2026-05-04 20:15 | 55.97420 | 37.41224 | 642 ft | 11 kts | 345° |
| 2026-05-04 20:15 | 55.97475 | 37.41199 | 644 ft | 9 kts | 345° |
| 2026-05-04 20:15 | 55.97540 | 37.41168 | 639 ft | 11 kts | 345° |
| 2026-05-04 20:15 | 55.97607 | 37.41151 | 642 ft | 8 kts | 25° |
| 2026-05-04 20:16 | 55.97622 | 37.41189 | 646 ft | 2 kts | 61° |
| 2026-05-04 20:16 | 55.97641 | 37.41209 | 646 ft | 5 kts | 16° |
| 2026-05-04 20:16 | 55.97680 | 37.41203 | 641 ft | 6 kts | 347° |
| 2026-05-04 20:16 | 55.97703 | 37.41193 | 639 ft | 1 kts | 346° |
| 2026-05-04 20:17 | 55.97709 | 37.41191 | 641 ft | 1 kts | 346° |
| 2026-05-04 20:17 | 55.97710 | 37.41190 | 641 ft | 0 kts | 346° |